sensor_id;sensor_type;location;lat;lon;timestamp;P1;durP1;ratioP1;P2;durP2;ratioP2
19223;SDS011;9746;47.180;9.776;2023-09-30T10:01:51;0.10;;;0.10;;
19223;SDS011;9746;47.180;9.776;2023-09-30T10:04:21;0.10;;;0.10;;
19223;SDS011;9746;47.180;9.776;2023-09-30T10:06:53;0.00;;;0.00;;
19223;SDS011;9746;47.180;9.776;2023-09-30T10:09:22;0.08;;;0.08;;
19223;SDS011;9746;47.180;9.776;2023-09-30T10:11:56;0.10;;;0.10;;
19223;SDS011;9746;47.180;9.776;2023-09-30T10:14:29;0.00;;;0.00;;
19223;SDS011;9746;47.180;9.776;2023-09-30T10:17:00;0.10;;;0.10;;
19223;SDS011;9746;47.180;9.776;2023-09-30T10:19:28;0.00;;;0.00;;
19223;SDS011;9746;47.180;9.776;2023-09-30T10:24:53;0.00;;;0.00;;
19223;SDS011;9746;47.180;9.776;2023-09-30T10:27:30;0.00;;;0.00;;
19223;SDS011;9746;47.180;9.776;2023-09-30T10:30:09;0.00;;;0.00;;
19223;SDS011;9746;47.180;9.776;2023-09-30T10:35:45;0.00;;;0.00;;
19223;SDS011;9746;47.180;9.776;2023-09-30T10:41:06;0.00;;;0.00;;
19223;SDS011;9746;47.180;9.776;2023-09-30T10:43:36;0.00;;;0.00;;
19223;SDS011;9746;47.180;9.776;2023-09-30T10:46:05;0.00;;;0.00;;
19223;SDS011;9746;47.180;9.776;2023-09-30T10:49:18;0.00;;;0.00;;
19223;SDS011;9746;47.180;9.776;2023-09-30T10:52:04;0.00;;;0.00;;
19223;SDS011;9746;47.180;9.776;2023-09-30T10:54:33;0.00;;;0.00;;
19223;SDS011;9746;47.180;9.776;2023-09-30T10:57:00;0.05;;;0.05;;
19223;SDS011;9746;47.180;9.776;2023-09-30T10:59:29;0.00;;;0.00;;
19223;SDS011;9746;47.180;9.776;2023-09-30T11:01:58;0.00;;;0.00;;
19223;SDS011;9746;47.180;9.776;2023-09-30T11:04:27;0.00;;;0.00;;
19223;SDS011;9746;47.180;9.776;2023-09-30T11:06:54;0.00;;;0.00;;
19223;SDS011;9746;47.180;9.776;2023-09-30T11:09:22;0.10;;;0.10;;
19223;SDS011;9746;47.180;9.776;2023-09-30T11:11:50;0.00;;;0.00;;
19223;SDS011;9746;47.180;9.776;2023-09-30T11:14:21;0.00;;;0.00;;
19223;SDS011;9746;47.180;9.776;2023-09-30T11:16:50;0.00;;;0.00;;
19223;SDS011;9746;47.180;9.776;2023-09-30T11:19:19;0.00;;;0.00;;
19223;SDS011;9746;47.180;9.776;2023-09-30T11:21:49;0.00;;;0.00;;
19223;SDS011;9746;47.180;9.776;2023-09-30T11:24:18;0.00;;;0.00;;
19223;SDS011;9746;47.180;9.776;2023-09-30T11:26:45;0.00;;;0.00;;
19223;SDS011;9746;47.180;9.776;2023-09-30T11:29:13;0.00;;;0.00;;
19223;SDS011;9746;47.180;9.776;2023-09-30T11:31:42;0.00;;;0.00;;
19223;SDS011;9746;47.180;9.776;2023-09-30T11:34:13;0.00;;;0.00;;
19223;SDS011;9746;47.180;9.776;2023-09-30T11:36:47;0.00;;;0.00;;
19223;SDS011;9746;47.180;9.776;2023-09-30T11:39:22;0.00;;;0.00;;
19223;SDS011;9746;47.180;9.776;2023-09-30T11:41:51;0.00;;;0.00;;
19223;SDS011;9746;47.180;9.776;2023-09-30T11:44:20;0.00;;;0.00;;
19223;SDS011;9746;47.180;9.776;2023-09-30T11:46:48;0.00;;;0.00;;
19223;SDS011;9746;47.180;9.776;2023-09-30T11:49:26;0.00;;;0.00;;
19223;SDS011;9746;47.180;9.776;2023-09-30T11:51:56;0.00;;;0.00;;
19223;SDS011;9746;47.180;9.776;2023-09-30T11:54:29;0.00;;;0.00;;
19223;SDS011;9746;47.180;9.776;2023-09-30T11:56:58;0.00;;;0.00;;
19223;SDS011;9746;47.180;9.776;2023-09-30T11:59:26;0.00;;;0.00;;
19223;SDS011;9746;47.180;9.776;2023-09-30T12:01:53;0.00;;;0.00;;
19223;SDS011;9746;47.180;9.776;2023-09-30T12:04:21;0.00;;;0.00;;
19223;SDS011;9746;47.180;9.776;2023-09-30T12:06:49;0.00;;;0.00;;
19223;SDS011;9746;47.180;9.776;2023-09-30T12:09:18;0.00;;;0.00;;
19223;SDS011;9746;47.180;9.776;2023-09-30T12:11:50;0.00;;;0.00;;
19223;SDS011;9746;47.180;9.776;2023-09-30T12:14:20;0.00;;;0.00;;
19223;SDS011;9746;47.180;9.776;2023-09-30T12:16:48;0.00;;;0.00;;
19223;SDS011;9746;47.180;9.776;2023-09-30T12:19:16;0.00;;;0.00;;
19223;SDS011;9746;47.180;9.776;2023-09-30T12:21:44;0.00;;;0.00;;
19223;SDS011;9746;47.180;9.776;2023-09-30T12:24:13;0.00;;;0.00;;
19223;SDS011;9746;47.180;9.776;2023-09-30T12:26:46;0.00;;;0.00;;
19223;SDS011;9746;47.180;9.776;2023-09-30T12:29:14;0.00;;;0.00;;
19223;SDS011;9746;47.180;9.776;2023-09-30T12:31:43;0.00;;;0.00;;
19223;SDS011;9746;47.180;9.776;2023-09-30T12:34:11;0.00;;;0.00;;
19223;SDS011;9746;47.180;9.776;2023-09-30T12:36:40;0.00;;;0.00;;
19223;SDS011;9746;47.180;9.776;2023-09-30T12:39:10;0.00;;;0.00;;
19223;SDS011;9746;47.180;9.776;2023-09-30T12:41:38;0.00;;;0.00;;
19223;SDS011;9746;47.180;9.776;2023-09-30T12:44:09;0.00;;;0.00;;
19223;SDS011;9746;47.180;9.776;2023-09-30T12:46:37;0.00;;;0.00;;
19223;SDS011;9746;47.180;9.776;2023-09-30T12:49:11;0.00;;;0.00;;
19223;SDS011;9746;47.180;9.776;2023-09-30T12:51:39;0.00;;;0.00;;
19223;SDS011;9746;47.180;9.776;2023-09-30T12:54:06;0.00;;;0.00;;
19223;SDS011;9746;47.180;9.776;2023-09-30T12:56:36;0.00;;;0.00;;
19223;SDS011;9746;47.180;9.776;2023-09-30T12:59:03;0.00;;;0.00;;
19223;SDS011;9746;47.180;9.776;2023-09-30T13:01:32;0.00;;;0.00;;
19223;SDS011;9746;47.180;9.776;2023-09-30T13:04:00;0.00;;;0.00;;
19223;SDS011;9746;47.180;9.776;2023-09-30T13:06:33;0.00;;;0.00;;
19223;SDS011;9746;47.180;9.776;2023-09-30T13:09:02;0.00;;;0.00;;
19223;SDS011;9746;47.180;9.776;2023-09-30T13:11:30;0.00;;;0.00;;
19223;SDS011;9746;47.180;9.776;2023-09-30T13:13:58;0.00;;;0.00;;
19223;SDS011;9746;47.180;9.776;2023-09-30T13:16:26;0.00;;;0.00;;
19223;SDS011;9746;47.180;9.776;2023-09-30T13:18:55;0.00;;;0.00;;
19223;SDS011;9746;47.180;9.776;2023-09-30T13:21:22;0.00;;;0.00;;
19223;SDS011;9746;47.180;9.776;2023-09-30T13:23:50;0.00;;;0.00;;
19223;SDS011;9746;47.180;9.776;2023-09-30T13:26:18;0.00;;;0.00;;
19223;SDS011;9746;47.180;9.776;2023-09-30T13:28:48;0.00;;;0.00;;
19223;SDS011;9746;47.180;9.776;2023-09-30T13:31:15;0.00;;;0.00;;
19223;SDS011;9746;47.180;9.776;2023-09-30T13:33:46;0.00;;;0.00;;
19223;SDS011;9746;47.180;9.776;2023-09-30T13:36:15;0.00;;;0.00;;
19223;SDS011;9746;47.180;9.776;2023-09-30T13:38:43;0.00;;;0.00;;
19223;SDS011;9746;47.180;9.776;2023-09-30T13:41:11;0.00;;;0.00;;
19223;SDS011;9746;47.180;9.776;2023-09-30T13:43:40;0.00;;;0.00;;
19223;SDS011;9746;47.180;9.776;2023-09-30T13:46:08;0.00;;;0.00;;
19223;SDS011;9746;47.180;9.776;2023-09-30T13:48:39;0.00;;;0.00;;
19223;SDS011;9746;47.180;9.776;2023-09-30T13:51:07;0.00;;;0.00;;
19223;SDS011;9746;47.180;9.776;2023-09-30T13:53:37;0.00;;;0.00;;
19223;SDS011;9746;47.180;9.776;2023-09-30T13:56:06;0.00;;;0.00;;
19223;SDS011;9746;47.180;9.776;2023-09-30T13:58:35;0.00;;;0.00;;
19223;SDS011;9746;47.180;9.776;2023-09-30T14:01:03;0.00;;;0.00;;
19223;SDS011;9746;47.180;9.776;2023-09-30T14:03:34;0.00;;;0.00;;
19223;SDS011;9746;47.180;9.776;2023-09-30T14:06:01;0.00;;;0.00;;
19223;SDS011;9746;47.180;9.776;2023-09-30T14:08:36;0.00;;;0.00;;
19223;SDS011;9746;47.180;9.776;2023-09-30T14:11:05;0.10;;;0.10;;
19223;SDS011;9746;47.180;9.776;2023-09-30T14:13:34;0.10;;;0.10;;
19223;SDS011;9746;47.180;9.776;2023-09-30T14:16:02;0.10;;;0.10;;
19223;SDS011;9746;47.180;9.776;2023-09-30T14:18:30;0.10;;;0.10;;
19223;SDS011;9746;47.180;9.776;2023-09-30T14:20:57;0.00;;;0.00;;
19223;SDS011;9746;47.180;9.776;2023-09-30T14:23:26;0.10;;;0.10;;
19223;SDS011;9746;47.180;9.776;2023-09-30T14:25:55;0.10;;;0.10;;
19223;SDS011;9746;47.180;9.776;2023-09-30T14:28:23;0.10;;;0.10;;
19223;SDS011;9746;47.180;9.776;2023-09-30T14:30:50;0.10;;;0.10;;
19223;SDS011;9746;47.180;9.776;2023-09-30T14:33:18;0.10;;;0.10;;
19223;SDS011;9746;47.180;9.776;2023-09-30T14:35:46;0.03;;;0.03;;
19223;SDS011;9746;47.180;9.776;2023-09-30T14:38:13;0.10;;;0.10;;
19223;SDS011;9746;47.180;9.776;2023-09-30T14:40:41;0.10;;;0.10;;
19223;SDS011;9746;47.180;9.776;2023-09-30T14:43:10;0.00;;;0.00;;
19223;SDS011;9746;47.180;9.776;2023-09-30T14:45:37;0.10;;;0.10;;
19223;SDS011;9746;47.180;9.776;2023-09-30T14:48:05;0.10;;;0.10;;
19223;SDS011;9746;47.180;9.776;2023-09-30T14:50:33;0.10;;;0.10;;
19223;SDS011;9746;47.180;9.776;2023-09-30T14:53:02;0.10;;;0.10;;
19223;SDS011;9746;47.180;9.776;2023-09-30T14:55:31;0.10;;;0.10;;
19223;SDS011;9746;47.180;9.776;2023-09-30T14:57:58;0.10;;;0.10;;
19223;SDS011;9746;47.180;9.776;2023-09-30T15:00:27;0.10;;;0.10;;
19223;SDS011;9746;47.180;9.776;2023-09-30T15:02:55;0.10;;;0.10;;
19223;SDS011;9746;47.180;9.776;2023-09-30T15:05:23;0.10;;;0.10;;
19223;SDS011;9746;47.180;9.776;2023-09-30T15:07:50;0.10;;;0.10;;
19223;SDS011;9746;47.180;9.776;2023-09-30T15:10:17;0.10;;;0.10;;
19223;SDS011;9746;47.180;9.776;2023-09-30T15:12:45;0.10;;;0.10;;
19223;SDS011;9746;47.180;9.776;2023-09-30T15:15:13;0.10;;;0.10;;
19223;SDS011;9746;47.180;9.776;2023-09-30T15:17:42;0.10;;;0.10;;
19223;SDS011;9746;47.180;9.776;2023-09-30T15:20:10;0.03;;;0.03;;
19223;SDS011;9746;47.180;9.776;2023-09-30T15:22:38;0.10;;;0.10;;
19223;SDS011;9746;47.180;9.776;2023-09-30T15:25:12;0.10;;;0.10;;
19223;SDS011;9746;47.180;9.776;2023-09-30T15:27:39;0.00;;;0.00;;
19223;SDS011;9746;47.180;9.776;2023-09-30T15:30:09;0.00;;;0.00;;
19223;SDS011;9746;47.180;9.776;2023-09-30T15:32:39;0.10;;;0.10;;
19223;SDS011;9746;47.180;9.776;2023-09-30T15:35:08;0.10;;;0.10;;
19223;SDS011;9746;47.180;9.776;2023-09-30T15:37:36;0.10;;;0.10;;
19223;SDS011;9746;47.180;9.776;2023-09-30T15:40:10;0.10;;;0.10;;
19223;SDS011;9746;47.180;9.776;2023-09-30T15:42:42;0.10;;;0.10;;
19223;SDS011;9746;47.180;9.776;2023-09-30T15:45:10;0.10;;;0.10;;
19223;SDS011;9746;47.180;9.776;2023-09-30T15:47:38;0.10;;;0.10;;
19223;SDS011;9746;47.180;9.776;2023-09-30T15:50:08;0.10;;;0.10;;
19223;SDS011;9746;47.180;9.776;2023-09-30T15:52:37;0.10;;;0.10;;
19223;SDS011;9746;47.180;9.776;2023-09-30T15:55:05;0.10;;;0.10;;
19223;SDS011;9746;47.180;9.776;2023-09-30T15:57:33;0.10;;;0.10;;
19223;SDS011;9746;47.180;9.776;2023-09-30T16:00:01;0.00;;;0.00;;
19223;SDS011;9746;47.180;9.776;2023-09-30T16:02:30;0.10;;;0.10;;
19223;SDS011;9746;47.180;9.776;2023-09-30T16:04:59;0.10;;;0.10;;
19223;SDS011;9746;47.180;9.776;2023-09-30T16:07:28;0.10;;;0.10;;
19223;SDS011;9746;47.180;9.776;2023-09-30T16:09:55;0.10;;;0.10;;
19223;SDS011;9746;47.180;9.776;2023-09-30T16:12:22;0.10;;;0.10;;
19223;SDS011;9746;47.180;9.776;2023-09-30T16:14:50;0.10;;;0.10;;
19223;SDS011;9746;47.180;9.776;2023-09-30T16:17:17;0.10;;;0.10;;
19223;SDS011;9746;47.180;9.776;2023-09-30T16:19:46;0.10;;;0.10;;
19223;SDS011;9746;47.180;9.776;2023-09-30T16:22:14;0.10;;;0.10;;
19223;SDS011;9746;47.180;9.776;2023-09-30T16:24:43;0.10;;;0.10;;
19223;SDS011;9746;47.180;9.776;2023-09-30T16:27:10;0.10;;;0.10;;
19223;SDS011;9746;47.180;9.776;2023-09-30T16:29:38;0.10;;;0.10;;
19223;SDS011;9746;47.180;9.776;2023-09-30T16:32:05;0.10;;;0.10;;
19223;SDS011;9746;47.180;9.776;2023-09-30T16:34:33;0.10;;;0.10;;
19223;SDS011;9746;47.180;9.776;2023-09-30T16:37:02;0.10;;;0.10;;
19223;SDS011;9746;47.180;9.776;2023-09-30T16:39:30;0.10;;;0.10;;
19223;SDS011;9746;47.180;9.776;2023-09-30T16:42:00;0.10;;;0.10;;
19223;SDS011;9746;47.180;9.776;2023-09-30T16:44:28;0.10;;;0.10;;
19223;SDS011;9746;47.180;9.776;2023-09-30T16:46:55;0.10;;;0.10;;
19223;SDS011;9746;47.180;9.776;2023-09-30T16:49:23;0.10;;;0.10;;
19223;SDS011;9746;47.180;9.776;2023-09-30T16:51:51;0.10;;;0.10;;
19223;SDS011;9746;47.180;9.776;2023-09-30T16:54:21;0.10;;;0.10;;
19223;SDS011;9746;47.180;9.776;2023-09-30T16:56:49;0.10;;;0.10;;
19223;SDS011;9746;47.180;9.776;2023-09-30T16:59:18;0.10;;;0.10;;
19223;SDS011;9746;47.180;9.776;2023-09-30T17:01:45;0.10;;;0.10;;
19223;SDS011;9746;47.180;9.776;2023-09-30T17:04:12;0.10;;;0.10;;
19223;SDS011;9746;47.180;9.776;2023-09-30T17:06:42;0.10;;;0.10;;
19223;SDS011;9746;47.180;9.776;2023-09-30T17:09:11;0.10;;;0.10;;
19223;SDS011;9746;47.180;9.776;2023-09-30T17:11:41;0.10;;;0.10;;
19223;SDS011;9746;47.180;9.776;2023-09-30T17:14:10;0.00;;;0.00;;
19223;SDS011;9746;47.180;9.776;2023-09-30T17:16:39;0.10;;;0.10;;
19223;SDS011;9746;47.180;9.776;2023-09-30T17:19:06;0.10;;;0.10;;
19223;SDS011;9746;47.180;9.776;2023-09-30T17:21:35;0.10;;;0.10;;
19223;SDS011;9746;47.180;9.776;2023-09-30T17:24:03;0.10;;;0.10;;
19223;SDS011;9746;47.180;9.776;2023-09-30T17:26:31;0.10;;;0.10;;
19223;SDS011;9746;47.180;9.776;2023-09-30T17:28:59;0.13;;;0.13;;
19223;SDS011;9746;47.180;9.776;2023-09-30T17:31:27;0.10;;;0.10;;
19223;SDS011;9746;47.180;9.776;2023-09-30T17:33:56;0.10;;;0.10;;
19223;SDS011;9746;47.180;9.776;2023-09-30T17:36:23;0.10;;;0.10;;
19223;SDS011;9746;47.180;9.776;2023-09-30T17:38:51;0.10;;;0.10;;
19223;SDS011;9746;47.180;9.776;2023-09-30T17:43:51;0.10;;;0.10;;
19223;SDS011;9746;47.180;9.776;2023-09-30T17:46:18;0.10;;;0.10;;
19223;SDS011;9746;47.180;9.776;2023-09-30T17:48:46;0.10;;;0.10;;
19223;SDS011;9746;47.180;9.776;2023-09-30T17:51:16;0.10;;;0.10;;
19223;SDS011;9746;47.180;9.776;2023-09-30T17:53:45;0.10;;;0.10;;
19223;SDS011;9746;47.180;9.776;2023-09-30T17:56:14;0.10;;;0.10;;
19223;SDS011;9746;47.180;9.776;2023-09-30T17:58:41;0.10;;;0.10;;
19223;SDS011;9746;47.180;9.776;2023-09-30T18:01:12;0.10;;;0.10;;
19223;SDS011;9746;47.180;9.776;2023-09-30T18:03:45;0.10;;;0.10;;
19223;SDS011;9746;47.180;9.776;2023-09-30T18:06:13;0.10;;;0.10;;
19223;SDS011;9746;47.180;9.776;2023-09-30T18:08:43;0.10;;;0.10;;
19223;SDS011;9746;47.180;9.776;2023-09-30T18:11:12;0.10;;;0.10;;
19223;SDS011;9746;47.180;9.776;2023-09-30T18:13:41;0.20;;;0.20;;
19223;SDS011;9746;47.180;9.776;2023-09-30T18:16:10;0.10;;;0.10;;
19223;SDS011;9746;47.180;9.776;2023-09-30T18:18:37;0.10;;;0.10;;
19223;SDS011;9746;47.180;9.776;2023-09-30T18:21:10;0.10;;;0.10;;
19223;SDS011;9746;47.180;9.776;2023-09-30T18:23:39;0.10;;;0.10;;
19223;SDS011;9746;47.180;9.776;2023-09-30T18:26:17;0.10;;;0.10;;
19223;SDS011;9746;47.180;9.776;2023-09-30T18:28:52;0.10;;;0.10;;
19223;SDS011;9746;47.180;9.776;2023-09-30T18:31:20;0.10;;;0.10;;
19223;SDS011;9746;47.180;9.776;2023-09-30T18:33:47;0.17;;;0.17;;
19223;SDS011;9746;47.180;9.776;2023-09-30T18:36:16;0.10;;;0.10;;
19223;SDS011;9746;47.180;9.776;2023-09-30T18:38:43;0.13;;;0.13;;
19223;SDS011;9746;47.180;9.776;2023-09-30T18:41:13;0.10;;;0.10;;
19223;SDS011;9746;47.180;9.776;2023-09-30T18:43:42;0.20;;;0.20;;
19223;SDS011;9746;47.180;9.776;2023-09-30T18:46:10;0.10;;;0.10;;
19223;SDS011;9746;47.180;9.776;2023-09-30T18:48:38;0.13;;;0.13;;
19223;SDS011;9746;47.180;9.776;2023-09-30T18:51:07;0.10;;;0.10;;
19223;SDS011;9746;47.180;9.776;2023-09-30T18:53:35;0.20;;;0.20;;
19223;SDS011;9746;47.180;9.776;2023-09-30T18:56:03;0.15;;;0.15;;
19223;SDS011;9746;47.180;9.776;2023-09-30T18:58:33;0.10;;;0.10;;
19223;SDS011;9746;47.180;9.776;2023-09-30T19:01:01;0.13;;;0.13;;
19223;SDS011;9746;47.180;9.776;2023-09-30T19:03:28;0.10;;;0.10;;
19223;SDS011;9746;47.180;9.776;2023-09-30T19:05:56;0.10;;;0.10;;
19223;SDS011;9746;47.180;9.776;2023-09-30T19:08:23;0.10;;;0.10;;
19223;SDS011;9746;47.180;9.776;2023-09-30T19:10:51;0.10;;;0.10;;
19223;SDS011;9746;47.180;9.776;2023-09-30T19:13:19;0.15;;;0.15;;
19223;SDS011;9746;47.180;9.776;2023-09-30T19:15:48;0.10;;;0.10;;
19223;SDS011;9746;47.180;9.776;2023-09-30T19:18:15;0.10;;;0.10;;
19223;SDS011;9746;47.180;9.776;2023-09-30T19:20:43;0.20;;;0.20;;
19223;SDS011;9746;47.180;9.776;2023-09-30T19:23:11;0.20;;;0.20;;
19223;SDS011;9746;47.180;9.776;2023-09-30T19:25:40;0.20;;;0.20;;
19223;SDS011;9746;47.180;9.776;2023-09-30T19:28:08;0.20;;;0.20;;
19223;SDS011;9746;47.180;9.776;2023-09-30T19:30:36;0.10;;;0.10;;
19223;SDS011;9746;47.180;9.776;2023-09-30T19:33:06;0.13;;;0.13;;
19223;SDS011;9746;47.180;9.776;2023-09-30T19:35:34;0.20;;;0.20;;
19223;SDS011;9746;47.180;9.776;2023-09-30T19:38:04;0.20;;;0.20;;
19223;SDS011;9746;47.180;9.776;2023-09-30T19:40:32;0.20;;;0.20;;
19223;SDS011;9746;47.180;9.776;2023-09-30T19:42:59;0.20;;;0.20;;
19223;SDS011;9746;47.180;9.776;2023-09-30T19:45:27;0.10;;;0.10;;
19223;SDS011;9746;47.180;9.776;2023-09-30T19:47:55;0.15;;;0.15;;
19223;SDS011;9746;47.180;9.776;2023-09-30T19:50:24;0.10;;;0.10;;
19223;SDS011;9746;47.180;9.776;2023-09-30T19:52:53;0.20;;;0.20;;
19223;SDS011;9746;47.180;9.776;2023-09-30T19:55:20;0.20;;;0.20;;
19223;SDS011;9746;47.180;9.776;2023-09-30T19:57:48;0.20;;;0.20;;
19223;SDS011;9746;47.180;9.776;2023-09-30T20:00:16;0.20;;;0.20;;
19223;SDS011;9746;47.180;9.776;2023-09-30T20:02:43;0.20;;;0.20;;
